Alhambra, Illinois
Current Conditions -  °F | °C
As of 2:35 AM on Saturday 29 Nov 2014 (Local Time) from KALN Reporting Station
Clear Clear  
Wind Chill: 32°   Ceiling: Unl
Heat Index: 38°   Visibility: 10mi
Dew Point: 33°   Wind: 7mph
Humidity: 84%   Direction: 130°SE
Pressure: 29.85"   Gusts: NA
Location:  38.89°N, 89.73°W
Report Text: KALN 290835Z AUTO 13006KT 10SM CLR 03/01 A2985 RMK AO2 T00310006
Loading
Personal Weather Stations






























Interactive Weather Map New forecast layout! Learn more

10-Day Weather Forecast

Advertisements
Track Severe Weather on mobile